createdAt,value
2022-08-07T00:00:06.401Z,62.43
2022-08-07T00:01:44.232Z,62.30
2022-08-07T00:02:58.538Z,62.32
2022-08-07T00:04:03.399Z,62.13
2022-08-07T00:05:06.729Z,62.71
2022-08-07T00:06:09.698Z,62.59
2022-08-07T00:07:13.738Z,62.65
2022-08-07T00:08:19.582Z,62.54
2022-08-07T00:09:29.162Z,62.74
2022-08-07T00:10:47.624Z,62.77
2022-08-07T00:11:56.179Z,62.74
2022-08-07T00:13:17.421Z,62.61
2022-08-07T00:14:31.041Z,62.81
2022-08-07T00:15:38.606Z,62.55
2022-08-07T00:16:49.847Z,62.97
2022-08-07T00:17:52.922Z,62.96
2022-08-07T00:18:56.126Z,63.09
2022-08-07T00:20:01.040Z,62.91
2022-08-07T00:21:08.310Z,63.51
2022-08-07T00:22:35.042Z,63.14
2022-08-07T00:23:40.242Z,63.23
2022-08-07T00:24:43.561Z,62.93
2022-08-07T00:25:58.181Z,63.38
2022-08-07T00:27:07.562Z,63.42
2022-08-07T00:28:12.140Z,63.29
2022-08-07T00:29:19.300Z,63.37
2022-08-07T00:30:28.572Z,63.53
2022-08-07T00:31:37.317Z,63.47
2022-08-07T00:32:41.448Z,63.74
2022-08-07T00:33:47.674Z,63.32
2022-08-07T00:34:50.881Z,64.01
2022-08-07T00:35:57.651Z,63.45
2022-08-07T00:37:00.614Z,63.94
2022-08-07T00:38:04.683Z,63.89
2022-08-07T00:39:07.648Z,64.25
2022-08-07T00:40:36.362Z,64.01
2022-08-07T00:41:53.569Z,64.10
2022-08-07T00:43:09.455Z,64.13
2022-08-07T00:44:12.526Z,64.13
2022-08-07T00:45:18.163Z,64.23
2022-08-07T00:46:21.261Z,64.07
2022-08-07T00:48:07.593Z,64.33
2022-08-07T00:48:49.895Z,64.39
2022-08-07T00:50:19.249Z,64.28
2022-08-07T00:51:17.540Z,64.65
2022-08-07T00:52:20.503Z,64.35
2022-08-07T00:53:23.724Z,64.39
2022-08-07T00:54:26.628Z,64.34
2022-08-07T00:56:00.759Z,64.46
2022-08-07T00:56:53.545Z,64.72
2022-08-07T00:57:56.715Z,64.55
2022-08-07T00:59:00.290Z,64.63
2022-08-07T01:00:07.493Z,64.56
2022-08-07T01:01:11.217Z,64.72
2022-08-07T01:02:28.838Z,64.44
2022-08-07T01:03:56.314Z,64.89
2022-08-07T01:04:58.852Z,64.74
2022-08-07T01:06:03.191Z,64.91
2022-08-07T01:07:06.968Z,64.74
2022-08-07T01:08:11.199Z,65.06
2022-08-07T01:10:04.780Z,65.18
2022-08-07T01:10:39.399Z,64.78
2022-08-07T01:12:09.829Z,65.00
2022-08-07T01:13:17.135Z,65.10
2022-08-07T01:14:28.388Z,65.18
2022-08-07T01:16:00.925Z,65.05
2022-08-07T01:16:58.232Z,65.20
2022-08-07T01:18:03.643Z,65.08
2022-08-07T01:19:14.827Z,65.30
2022-08-07T01:20:28.302Z,65.32
2022-08-07T01:21:34.163Z,65.43
2022-08-07T01:22:56.570Z,65.58
2022-08-07T01:24:04.784Z,65.64
2022-08-07T01:25:54.398Z,65.81
2022-08-07T01:26:32.319Z,65.71
2022-08-07T01:27:35.551Z,65.79
2022-08-07T01:28:45.876Z,65.98
2022-08-07T01:29:53.860Z,65.85
2022-08-07T01:32:38.095Z,66.09
2022-08-07T01:33:55.974Z,66.00
2022-08-07T01:35:03.015Z,65.79
2022-08-07T01:36:09.961Z,66.21
2022-08-07T01:37:17.397Z,66.12
2022-08-07T01:38:24.972Z,66.30
2022-08-07T01:39:41.134Z,66.35
2022-08-07T01:41:03.294Z,66.38
2022-08-07T01:42:36.861Z,66.45
2022-08-07T01:43:38.374Z,66.57
2022-08-07T01:44:43.533Z,66.43
2022-08-07T01:45:54.356Z,66.79
2022-08-07T01:47:01.252Z,66.56
2022-08-07T01:48:29.856Z,66.49
2022-08-07T01:49:35.696Z,66.47
2022-08-07T01:50:43.089Z,66.81
2022-08-07T01:52:03.694Z,66.77
2022-08-07T01:53:10.438Z,66.75
2022-08-07T01:54:37.034Z,66.90
2022-08-07T01:55:47.477Z,67.14
2022-08-07T01:56:50.741Z,67.10
2022-08-07T01:58:05.676Z,66.99
2022-08-07T01:59:15.643Z,67.14
2022-08-07T02:00:19.028Z,67.04
2022-08-07T02:01:59.829Z,66.87
2022-08-07T02:03:19.160Z,66.83
2022-08-07T02:04:27.748Z,67.12
2022-08-07T02:05:53.593Z,67.14
2022-08-07T02:07:04.672Z,67.22
2022-08-07T02:08:14.964Z,67.24
2022-08-07T02:09:52.279Z,67.29
2022-08-07T02:10:44.343Z,67.11
2022-08-07T02:12:04.942Z,67.39
2022-08-07T02:13:12.455Z,67.46
2022-08-07T02:14:40.203Z,67.15
2022-08-07T02:15:49.036Z,67.54
2022-08-07T02:16:56.907Z,67.57
2022-08-07T02:18:02.808Z,67.33
2022-08-07T02:20:05.628Z,67.49
2022-08-07T02:20:34.780Z,67.68
2022-08-07T02:21:56.726Z,67.69
2022-08-07T02:23:03.241Z,67.52
2022-08-07T02:24:06.923Z,67.90
2022-08-07T02:25:18.115Z,67.72
2022-08-07T02:26:32.969Z,67.87
2022-08-07T02:27:41.017Z,68.01
2022-08-07T02:28:44.934Z,67.83
2022-08-07T02:29:54.618Z,68.19
2022-08-07T02:31:10.058Z,68.05
2022-08-07T02:32:23.472Z,68.29
2022-08-07T02:33:33.000Z,68.45
2022-08-07T02:34:56.345Z,68.25
2022-08-07T02:36:28.645Z,68.34
2022-08-07T02:37:26.504Z,68.41
2022-08-07T02:38:32.207Z,68.41
2022-08-07T02:39:43.495Z,68.40
2022-08-07T02:41:04.900Z,68.25
2022-08-07T02:42:14.646Z,68.44
2022-08-07T02:43:20.050Z,68.79
2022-08-07T02:44:27.465Z,68.35
2022-08-07T02:45:58.462Z,68.82
2022-08-07T02:46:59.224Z,68.79
2022-08-07T02:48:05.279Z,68.79
2022-08-07T02:49:28.842Z,69.03
2022-08-07T02:50:41.761Z,68.94
2022-08-07T02:51:51.885Z,69.26
2022-08-07T02:53:10.838Z,69.01
2022-08-07T02:54:15.360Z,69.70
2022-08-07T02:55:28.445Z,69.70
2022-08-07T02:56:48.693Z,69.64
2022-08-07T02:57:53.822Z,69.30
2022-08-07T02:58:59.154Z,69.55
2022-08-07T03:00:11.080Z,69.61
2022-08-07T03:01:19.071Z,69.70
2022-08-07T03:02:41.886Z,69.60
2022-08-07T03:03:58.634Z,69.62
2022-08-07T03:05:06.980Z,69.63
2022-08-07T03:06:16.314Z,69.55
2022-08-07T03:07:58.967Z,69.68
2022-08-07T03:08:52.853Z,69.50
2022-08-07T03:09:56.046Z,69.62
2022-08-07T03:10:59.720Z,69.84
2022-08-07T03:12:08.180Z,69.67
2022-08-07T03:13:25.609Z,69.94
2022-08-07T03:14:30.863Z,69.75
2022-08-07T03:15:47.701Z,69.69
2022-08-07T03:16:57.625Z,69.90
2022-08-07T03:18:00.943Z,69.86
2022-08-07T03:19:04.850Z,69.80
2022-08-07T03:20:08.694Z,69.86
2022-08-07T03:21:19.026Z,70.23
2022-08-07T03:22:24.139Z,70.01
2022-08-07T03:23:33.662Z,69.96
2022-08-07T03:24:37.596Z,69.77
2022-08-07T03:25:42.382Z,69.79
2022-08-07T03:26:51.107Z,70.07
2022-08-07T03:28:09.462Z,69.93
2022-08-07T03:29:27.683Z,70.18
2022-08-07T03:30:32.176Z,70.01
2022-08-07T03:31:42.729Z,70.19
2022-08-07T03:32:59.137Z,70.10
2022-08-07T03:34:05.984Z,70.13
2022-08-07T03:35:18.307Z,70.73
2022-08-07T03:36:29.944Z,70.37
2022-08-07T03:37:45.978Z,70.36
2022-08-07T03:39:05.592Z,70.75
2022-08-07T03:40:15.447Z,70.06
2022-08-07T03:41:20.079Z,70.43
2022-08-07T03:42:44.153Z,70.25
2022-08-07T03:43:56.945Z,70.20
2022-08-07T03:45:02.313Z,70.32
2022-08-07T03:46:10.583Z,70.24
2022-08-07T03:47:23.419Z,70.41
2022-08-07T03:48:29.715Z,70.25
2022-08-07T03:49:33.852Z,70.31
2022-08-07T03:50:37.156Z,70.42
2022-08-07T03:51:47.372Z,70.37
2022-08-07T03:52:52.108Z,70.43
2022-08-07T03:54:33.318Z,70.73
2022-08-07T03:55:18.738Z,70.64
2022-08-07T03:56:33.073Z,70.39
2022-08-07T03:58:35.343Z,70.68
2022-08-07T03:59:09.969Z,70.42
2022-08-07T04:00:21.028Z,70.47
2022-08-07T04:01:33.197Z,70.49
2022-08-07T04:02:43.039Z,70.21
2022-08-07T04:03:56.221Z,70.38
2022-08-07T04:05:01.056Z,70.41
2022-08-07T04:06:07.929Z,70.45
2022-08-07T04:07:41.724Z,70.42
2022-08-07T04:08:49.273Z,70.24
2022-08-07T04:09:53.130Z,70.42
2022-08-07T04:12:15.361Z,70.39
2022-08-07T04:12:27.115Z,70.15
2022-08-07T04:14:10.952Z,70.53
2022-08-07T04:14:57.150Z,70.34
2022-08-07T04:16:00.748Z,70.21
2022-08-07T04:17:04.361Z,70.07
2022-08-07T04:18:57.083Z,70.17
2022-08-07T04:19:51.536Z,70.33
2022-08-07T04:20:57.266Z,70.13
2022-08-07T04:22:08.590Z,70.05
2022-08-07T04:23:19.148Z,70.06
2022-08-07T04:24:30.431Z,70.03
2022-08-07T04:25:39.110Z,69.95
2022-08-07T04:26:44.276Z,70.06
2022-08-07T04:27:59.347Z,69.87
2022-08-07T04:29:04.263Z,69.92
2022-08-07T04:30:11.644Z,69.80
2022-08-07T04:31:38.689Z,69.83
2022-08-07T04:32:58.048Z,69.88
2022-08-07T04:34:02.948Z,69.71
2022-08-07T04:35:11.412Z,69.82
2022-08-07T04:36:14.916Z,69.86
2022-08-07T04:37:20.452Z,69.74
2022-08-07T04:38:25.575Z,69.65
2022-08-07T04:39:29.396Z,69.67
2022-08-07T04:40:51.224Z,69.64
2022-08-07T04:41:57.387Z,69.75
2022-08-07T04:43:03.524Z,69.58
2022-08-07T04:44:16.164Z,69.81
2022-08-07T04:45:57.941Z,69.60
2022-08-07T04:47:07.583Z,69.45
2022-08-07T04:48:28.523Z,69.57
2022-08-07T04:50:04.106Z,69.50
2022-08-07T04:51:32.097Z,69.68
2022-08-07T04:52:51.381Z,69.53
2022-08-07T04:54:12.970Z,69.52
2022-08-07T04:58:15.000Z,69.53
2022-08-07T04:58:15.329Z,69.52
2022-08-07T04:59:07.662Z,69.33
2022-08-07T05:00:11.373Z,69.62
2022-08-07T05:01:51.341Z,69.30
2022-08-07T05:03:02.898Z,69.36
2022-08-07T05:04:26.395Z,69.48
2022-08-07T05:05:53.874Z,69.34
2022-08-07T05:06:53.307Z,69.47
2022-08-07T05:08:12.695Z,69.41
2022-08-07T05:09:45.955Z,69.32
2022-08-07T05:11:19.394Z,69.25
2022-08-07T05:12:30.609Z,69.33
2022-08-07T05:14:53.901Z,69.26
2022-08-07T05:15:21.788Z,69.43
2022-08-07T05:16:29.318Z,69.35
2022-08-07T05:17:52.045Z,69.41
2022-08-07T05:19:02.199Z,69.48
2022-08-07T05:20:09.578Z,69.23
2022-08-07T05:21:14.844Z,69.36
2022-08-07T05:22:26.804Z,69.49
2022-08-07T05:23:40.991Z,69.37
2022-08-07T05:24:46.150Z,69.46
2022-08-07T05:26:13.306Z,69.56
2022-08-07T05:28:01.966Z,69.54
2022-08-07T05:28:48.484Z,69.45
2022-08-07T05:29:53.882Z,69.53
2022-08-07T05:30:58.978Z,69.36
2022-08-07T05:32:06.354Z,69.43
2022-08-07T05:33:13.045Z,69.21
2022-08-07T05:34:19.017Z,69.22
2022-08-07T05:35:23.911Z,69.18
2022-08-07T05:36:42.236Z,69.08
2022-08-07T05:38:09.044Z,69.08
2022-08-07T05:40:13.500Z,68.90
2022-08-07T05:40:50.599Z,68.88
2022-08-07T05:42:01.251Z,68.72
2022-08-07T05:43:06.887Z,68.71
2022-08-07T05:44:17.227Z,68.59
2022-08-07T05:45:46.572Z,68.67
2022-08-07T05:46:52.462Z,68.57
2022-08-07T05:48:01.421Z,68.33
2022-08-07T05:49:12.341Z,68.32
2022-08-07T05:50:17.865Z,68.16
2022-08-07T05:51:22.596Z,68.13
2022-08-07T05:52:32.600Z,68.13
2022-08-07T05:54:13.913Z,68.07
2022-08-07T05:55:07.279Z,67.78
2022-08-07T05:56:15.743Z,67.67
2022-08-07T05:57:23.805Z,67.49
2022-08-07T05:58:36.358Z,67.32
2022-08-07T05:59:55.918Z,66.91
2022-08-07T06:01:05.042Z,66.34
2022-08-07T06:02:13.644Z,66.23
2022-08-07T06:03:23.008Z,66.14
2022-08-07T06:04:30.150Z,65.93
2022-08-07T06:05:34.383Z,65.94
2022-08-07T06:06:41.406Z,65.58
2022-08-07T06:08:12.961Z,65.36
2022-08-07T06:09:14.932Z,65.20
2022-08-07T06:10:21.090Z,64.97
2022-08-07T06:11:25.899Z,64.66
2022-08-07T06:12:32.992Z,64.36
2022-08-07T06:14:13.138Z,64.19
2022-08-07T06:15:05.534Z,63.98
2022-08-07T06:16:10.325Z,63.87
2022-08-07T06:17:18.034Z,63.74
2022-08-07T06:18:21.669Z,63.55
2022-08-07T06:19:47.790Z,63.44
2022-08-07T06:20:50.350Z,63.42
2022-08-07T06:22:23.041Z,63.31
2022-08-07T06:24:37.285Z,63.23
2022-08-07T06:24:56.846Z,62.98
2022-08-07T06:26:04.926Z,62.69
2022-08-07T06:27:10.250Z,62.66
2022-08-07T06:28:14.852Z,62.54
2022-08-07T06:29:18.138Z,62.44
2022-08-07T06:30:32.335Z,62.49
2022-08-07T06:31:50.417Z,62.41
2022-08-07T06:32:57.224Z,62.37
2022-08-07T06:34:00.722Z,62.41
2022-08-07T06:35:17.612Z,61.97
2022-08-07T06:36:35.034Z,61.94
2022-08-07T06:37:43.488Z,61.80
2022-08-07T06:38:59.460Z,61.78
2022-08-07T06:40:19.936Z,61.67
2022-08-07T06:41:29.376Z,61.60
2022-08-07T06:42:51.540Z,61.38
2022-08-07T06:44:13.328Z,61.26
2022-08-07T06:45:23.961Z,61.45
2022-08-07T06:46:35.289Z,61.17
2022-08-07T06:47:57.574Z,60.97
2022-08-07T06:49:16.390Z,60.82
2022-08-07T06:50:23.275Z,60.85
2022-08-07T06:51:33.899Z,60.72
2022-08-07T06:52:45.210Z,60.33
2022-08-07T06:55:29.001Z,60.41
2022-08-07T06:55:32.148Z,60.34
2022-08-07T06:56:49.459Z,60.06
2022-08-07T06:58:11.798Z,59.88
2022-08-07T07:00:12.603Z,59.24
2022-08-07T07:00:46.325Z,58.73
2022-08-07T07:01:51.077Z,58.36
2022-08-07T07:02:57.982Z,58.59
2022-08-07T07:04:28.611Z,58.32
2022-08-07T07:06:02.600Z,58.20
2022-08-07T07:07:00.131Z,58.11
2022-08-07T07:08:07.183Z,58.11
2022-08-07T07:09:16.531Z,58.18
2022-08-07T07:10:36.170Z,57.89
2022-08-07T07:12:07.553Z,57.33
2022-08-07T07:13:11.254Z,57.39
2022-08-07T07:14:15.646Z,56.94
2022-08-07T07:15:35.724Z,57.01
2022-08-07T07:16:49.969Z,57.20
2022-08-07T07:18:02.427Z,57.10
2022-08-07T07:19:34.127Z,57.05
2022-08-07T07:20:51.853Z,57.04
2022-08-07T07:22:05.089Z,56.86
2022-08-07T07:24:06.491Z,56.79
2022-08-07T07:24:39.470Z,56.85
2022-08-07T07:26:32.255Z,56.62
2022-08-07T07:27:11.965Z,56.68
2022-08-07T07:28:42.507Z,56.67
2022-08-07T07:30:07.384Z,56.50
2022-08-07T07:31:44.431Z,56.51
2022-08-07T07:32:51.048Z,56.18
2022-08-07T07:33:57.497Z,56.06
2022-08-07T07:35:03.855Z,55.99
2022-08-07T07:36:13.117Z,55.58
2022-08-07T07:37:45.535Z,55.45
2022-08-07T07:38:46.158Z,55.08
2022-08-07T07:39:55.364Z,54.91
2022-08-07T07:41:02.644Z,54.23
2022-08-07T07:42:13.749Z,54.33
2022-08-07T07:43:27.682Z,54.18
2022-08-07T07:44:49.586Z,53.99
2022-08-07T07:46:50.050Z,53.15
2022-08-07T07:47:23.919Z,53.56
2022-08-07T07:48:35.900Z,53.31
2022-08-07T07:50:33.698Z,53.22
2022-08-07T07:51:03.464Z,53.25
2022-08-07T07:52:12.983Z,53.33
2022-08-07T07:53:22.899Z,53.07
2022-08-07T07:54:29.973Z,53.06
2022-08-07T07:55:45.766Z,52.18
2022-08-07T07:56:59.177Z,52.27
2022-08-07T07:58:05.075Z,51.58
2022-08-07T07:59:09.873Z,51.73
2022-08-07T08:00:20.761Z,51.72
2022-08-07T08:02:03.374Z,51.44
2022-08-07T08:03:05.722Z,51.49
2022-08-07T08:04:11.993Z,51.64
2022-08-07T08:05:16.420Z,51.65
2022-08-07T08:06:20.132Z,51.62
2022-08-07T08:07:24.635Z,51.25
2022-08-07T08:08:42.061Z,51.04
2022-08-07T08:09:52.533Z,50.40
2022-08-07T08:11:16.039Z,50.32
2022-08-07T08:12:50.138Z,49.79
2022-08-07T08:13:53.846Z,49.39
2022-08-07T08:14:58.190Z,49.71
2022-08-07T08:16:01.951Z,49.75
2022-08-07T08:17:55.266Z,49.51
2022-08-07T08:18:30.567Z,49.57
2022-08-07T08:20:17.976Z,49.48
2022-08-07T08:21:00.224Z,48.64
2022-08-07T08:22:24.123Z,48.95
2022-08-07T08:23:54.850Z,48.97
2022-08-07T08:25:27.058Z,48.14
2022-08-07T08:27:09.255Z,48.45
2022-08-07T08:28:24.047Z,48.36
2022-08-07T08:29:54.252Z,48.06
2022-08-07T08:31:00.348Z,48.34
2022-08-07T08:32:17.819Z,48.42
2022-08-07T08:33:23.464Z,48.26
2022-08-07T08:34:28.981Z,48.42
2022-08-07T08:35:39.507Z,48.25
2022-08-07T08:36:57.771Z,48.29
2022-08-07T08:38:04.858Z,46.84
2022-08-07T08:39:08.959Z,47.68
2022-08-07T08:40:28.617Z,47.79
2022-08-07T08:41:57.311Z,47.39
2022-08-07T08:43:03.661Z,47.30
2022-08-07T08:44:36.307Z,47.28
2022-08-07T08:46:02.073Z,47.42
2022-08-07T08:47:14.226Z,47.07
2022-08-07T08:48:35.998Z,47.11
2022-08-07T08:50:05.068Z,46.29
2022-08-07T08:52:00.792Z,46.69
2022-08-07T08:53:02.472Z,46.94
2022-08-07T08:54:10.970Z,46.79
2022-08-07T08:55:54.394Z,46.93
2022-08-07T08:56:49.945Z,47.07
2022-08-07T08:58:01.787Z,47.24
2022-08-07T08:59:16.400Z,47.42
2022-08-07T09:00:21.022Z,47.11
2022-08-07T09:01:40.229Z,46.86
2022-08-07T09:02:52.251Z,46.34
2022-08-07T09:04:06.977Z,46.20
2022-08-07T09:05:36.885Z,45.93
2022-08-07T09:07:03.657Z,45.81
2022-08-07T09:08:06.948Z,44.79
2022-08-07T09:09:29.772Z,44.65
2022-08-07T09:10:36.244Z,45.21
2022-08-07T09:11:55.434Z,45.64
2022-08-07T09:13:14.683Z,45.64
2022-08-07T09:14:29.656Z,45.84
2022-08-07T09:16:25.527Z,45.83
2022-08-07T09:17:03.026Z,45.88
2022-08-07T09:18:33.574Z,45.71
2022-08-07T09:19:51.268Z,45.91
2022-08-07T09:21:00.835Z,45.91
2022-08-07T09:22:22.616Z,45.82
2022-08-07T09:24:35.133Z,45.38
2022-08-07T09:25:14.761Z,45.53
2022-08-07T09:26:32.605Z,45.64
2022-08-07T09:28:05.086Z,45.79
2022-08-07T09:30:01.766Z,45.59
2022-08-07T09:31:09.433Z,45.55
2022-08-07T09:32:17.301Z,45.75
2022-08-07T09:33:53.187Z,45.30
2022-08-07T09:36:04.890Z,45.38
2022-08-07T09:36:39.389Z,45.27
2022-08-07T09:37:54.229Z,44.90
2022-08-07T09:39:52.761Z,44.62
2022-08-07T09:40:46.180Z,44.67
2022-08-07T09:42:05.833Z,44.51
2022-08-07T09:43:10.798Z,43.88
2022-08-07T09:44:58.388Z,44.01
2022-08-07T09:47:25.851Z,44.12
2022-08-07T09:47:59.481Z,43.77
2022-08-07T09:50:01.118Z,43.77
2022-08-07T09:50:34.448Z,43.83
2022-08-07T09:52:15.606Z,44.01
2022-08-07T09:53:12.519Z,43.23
2022-08-07T09:54:21.949Z,43.32
2022-08-07T09:56:02.420Z,42.99
2022-08-07T09:57:06.037Z,42.91
2022-08-07T09:58:32.074Z,42.63
2022-08-07T10:00:01.223Z,42.56
2022-08-07T10:01:51.201Z,42.13
2022-08-07T10:04:06.406Z,42.24
2022-08-07T10:04:53.042Z,42.09
2022-08-07T10:06:02.632Z,41.90
2022-08-07T10:07:27.582Z,41.58
2022-08-07T10:08:44.305Z,41.81
2022-08-07T10:10:02.496Z,41.48
2022-08-07T10:11:59.477Z,41.58
2022-08-07T10:12:53.102Z,41.79
2022-08-07T10:14:11.234Z,41.48
2022-08-07T10:15:15.096Z,41.13
2022-08-07T10:16:33.697Z,41.20
2022-08-07T10:18:01.874Z,41.45
2022-08-07T10:19:17.201Z,41.36
2022-08-07T10:20:31.812Z,40.92
2022-08-07T10:22:12.020Z,40.23
2022-08-07T10:23:08.246Z,40.23
2022-08-07T10:24:21.609Z,40.26
2022-08-07T10:25:42.143Z,40.68
2022-08-07T10:26:53.251Z,40.55
2022-08-07T10:27:56.518Z,40.65
2022-08-07T10:29:18.166Z,40.90
2022-08-07T10:30:26.389Z,41.32
2022-08-07T10:31:49.542Z,41.58
2022-08-07T10:33:12.975Z,41.90
2022-08-07T10:34:27.215Z,41.78
2022-08-07T10:35:55.548Z,42.08
2022-08-07T10:37:15.743Z,42.39
2022-08-07T10:38:42.283Z,42.53
2022-08-07T10:39:57.559Z,42.87
2022-08-07T10:41:06.851Z,43.10
2022-08-07T10:42:31.195Z,43.12
2022-08-07T10:44:07.349Z,43.54
2022-08-07T10:45:45.297Z,43.81
2022-08-07T10:46:55.806Z,43.95
2022-08-07T10:48:10.933Z,43.99
2022-08-07T10:49:49.236Z,43.96
2022-08-07T10:50:55.748Z,44.62
2022-08-07T10:52:13.195Z,44.35
2022-08-07T10:53:41.760Z,44.21
2022-08-07T10:55:32.659Z,43.97
2022-08-07T10:56:39.495Z,44.03
2022-08-07T10:57:57.833Z,44.04
2022-08-07T10:59:13.496Z,44.09
2022-08-07T11:00:39.638Z,44.19
2022-08-07T11:02:11.955Z,44.15
2022-08-07T11:03:16.354Z,43.89
2022-08-07T11:04:31.802Z,43.19
2022-08-07T11:05:54.661Z,43.20
2022-08-07T11:07:15.153Z,43.16
2022-08-07T11:08:52.895Z,43.69
2022-08-07T11:10:08.553Z,43.67
2022-08-07T11:11:31.190Z,43.28
2022-08-07T11:12:43.514Z,43.24
2022-08-07T11:14:57.445Z,43.15
2022-08-07T11:15:17.633Z,42.77
2022-08-07T11:16:29.806Z,43.09
2022-08-07T11:18:09.589Z,41.97
2022-08-07T11:19:21.442Z,41.34
2022-08-07T11:20:35.792Z,41.70
2022-08-07T11:22:26.547Z,41.78
2022-08-07T11:23:45.516Z,41.56
2022-08-07T11:25:13.260Z,41.31
2022-08-07T11:26:24.284Z,41.14
2022-08-07T11:28:03.208Z,40.84
2022-08-07T11:29:42.152Z,41.03
2022-08-07T11:30:53.469Z,40.75
2022-08-07T11:32:13.960Z,40.66
2022-08-07T11:33:53.457Z,39.87
2022-08-07T11:34:59.707Z,40.53
2022-08-07T11:36:10.862Z,40.32
2022-08-07T11:37:38.456Z,40.26
2022-08-07T11:38:58.027Z,40.33
2022-08-07T11:40:19.262Z,40.07
2022-08-07T11:42:00.425Z,40.01
2022-08-07T11:43:05.277Z,39.26
2022-08-07T11:44:12.830Z,39.14
2022-08-07T11:45:37.468Z,39.41
2022-08-07T11:46:50.123Z,39.85
2022-08-07T11:48:02.634Z,39.82
2022-08-07T11:49:50.172Z,40.25
2022-08-07T11:50:32.671Z,40.09
2022-08-07T11:51:44.985Z,40.49
2022-08-07T11:53:05.058Z,40.53
2022-08-07T11:54:26.655Z,41.24
2022-08-07T11:56:09.553Z,41.50
2022-08-07T11:57:18.897Z,41.92
2022-08-07T11:58:24.985Z,42.06
2022-08-07T12:00:12.422Z,42.41
2022-08-07T12:02:00.012Z,42.42
2022-08-07T12:03:41.538Z,42.66
2022-08-07T12:04:41.280Z,42.96
2022-08-07T12:06:00.427Z,43.19
2022-08-07T12:07:29.419Z,43.47
2022-08-07T12:08:42.726Z,43.74
2022-08-07T12:09:58.812Z,43.83
2022-08-07T12:11:20.745Z,44.19
2022-08-07T12:12:25.658Z,44.70
2022-08-07T12:13:47.825Z,44.50
2022-08-07T12:15:35.904Z,44.73
2022-08-07T12:17:05.836Z,44.73
2022-08-07T12:18:12.493Z,44.31
2022-08-07T12:19:22.216Z,44.20
2022-08-07T12:20:43.530Z,43.75
2022-08-07T12:22:37.258Z,42.90
2022-08-07T12:24:05.940Z,42.89
2022-08-07T12:26:02.822Z,42.57
2022-08-07T12:26:49.473Z,42.78
2022-08-07T12:28:09.963Z,42.76
2022-08-07T12:29:38.090Z,42.50
2022-08-07T12:30:46.822Z,42.63
2022-08-07T12:32:04.209Z,42.19
2022-08-07T12:33:23.137Z,41.78
2022-08-07T12:34:33.395Z,41.55
2022-08-07T12:35:37.053Z,41.39
2022-08-07T12:36:40.900Z,41.13
2022-08-07T12:38:10.201Z,40.42
2022-08-07T12:39:42.807Z,40.53
2022-08-07T12:40:47.728Z,40.12
2022-08-07T12:41:53.014Z,39.53
2022-08-07T12:42:57.573Z,39.52
2022-08-07T12:44:05.919Z,38.73
2022-08-07T12:45:18.361Z,38.50
2022-08-07T12:46:32.514Z,38.55
2022-08-07T12:47:46.407Z,38.11
2022-08-07T12:49:09.884Z,37.06
2022-08-07T12:50:50.009Z,36.68
2022-08-07T12:52:13.691Z,35.03
2022-08-07T12:53:22.400Z,34.90
2022-08-07T12:54:37.081Z,34.82
2022-08-07T12:56:03.076Z,35.18
2022-08-07T12:57:10.117Z,35.31
2022-08-07T12:58:15.886Z,35.17
2022-08-07T12:59:21.691Z,34.97
2022-08-07T13:00:33.042Z,35.17
2022-08-07T13:02:03.173Z,35.14
2022-08-07T13:03:23.031Z,34.84
2022-08-07T13:04:49.307Z,34.67
2022-08-07T13:06:27.858Z,34.32
2022-08-07T13:08:14.363Z,34.86
2022-08-07T13:10:18.782Z,34.45
2022-08-07T13:11:03.765Z,34.22
2022-08-07T13:12:15.380Z,34.32
2022-08-07T13:13:47.116Z,33.84
2022-08-07T13:14:56.750Z,33.68
2022-08-07T13:16:10.730Z,33.22
2022-08-07T13:17:23.081Z,33.02
2022-08-07T13:19:01.933Z,32.82
2022-08-07T13:20:08.299Z,32.68
2022-08-07T13:21:37.338Z,32.59
2022-08-07T13:22:53.446Z,31.57
2022-08-07T13:24:15.457Z,31.46
2022-08-07T13:25:30.881Z,30.96
2022-08-07T13:26:39.179Z,31.20
2022-08-07T13:28:11.480Z,31.55
2022-08-07T13:29:20.463Z,30.83
2022-08-07T13:30:41.135Z,30.65
2022-08-07T13:31:57.905Z,30.05
2022-08-07T13:34:14.495Z,28.44
2022-08-07T13:34:51.310Z,29.56
2022-08-07T13:36:05.566Z,29.97
2022-08-07T13:37:25.760Z,30.13
2022-08-07T13:38:28.971Z,30.41
2022-08-07T13:40:34.092Z,29.75
2022-08-07T13:41:17.768Z,29.66
2022-08-07T13:42:25.113Z,29.58
2022-08-07T13:43:34.355Z,29.24
2022-08-07T13:44:39.574Z,28.66
2022-08-07T13:46:12.043Z,29.00
2022-08-07T13:47:15.780Z,29.03
2022-08-07T13:48:33.851Z,29.23
2022-08-07T13:50:35.354Z,29.18
2022-08-07T13:51:03.535Z,28.88
2022-08-07T13:52:32.508Z,28.75
2022-08-07T13:54:00.129Z,29.22
2022-08-07T13:55:10.912Z,29.20
2022-08-07T13:56:20.446Z,28.92
2022-08-07T13:57:59.270Z,29.19
2022-08-07T13:59:10.409Z,29.10
2022-08-07T14:00:26.884Z,29.37
2022-08-07T14:01:33.224Z,29.49
2022-08-07T14:02:56.188Z,29.74
2022-08-07T14:04:08.215Z,29.91
2022-08-07T14:05:13.336Z,30.12
2022-08-07T14:06:19.861Z,30.09
2022-08-07T14:07:24.632Z,29.12
2022-08-07T14:08:28.100Z,29.13
2022-08-07T14:10:01.974Z,29.56
2022-08-07T14:11:14.638Z,29.37
2022-08-07T14:12:27.628Z,29.32
2022-08-07T14:13:33.338Z,29.34
2022-08-07T14:14:46.222Z,28.80
2022-08-07T14:15:54.439Z,28.45
2022-08-07T14:17:13.183Z,28.41
2022-08-07T14:18:30.598Z,27.69
2022-08-07T14:20:43.085Z,27.53
2022-08-07T14:21:11.699Z,27.52
2022-08-07T14:22:34.358Z,27.22
2022-08-07T14:23:59.932Z,27.16
2022-08-07T14:25:13.376Z,27.54
2022-08-07T14:26:30.461Z,28.12
2022-08-07T14:28:21.086Z,28.25
2022-08-07T14:30:05.138Z,28.63
2022-08-07T14:30:32.874Z,29.02
2022-08-07T14:31:56.387Z,29.18
2022-08-07T14:33:04.656Z,29.13
2022-08-07T14:34:10.031Z,29.24
2022-08-07T14:35:44.727Z,29.53
2022-08-07T14:36:42.926Z,29.80
2022-08-07T14:38:05.743Z,30.02
2022-08-07T14:39:12.549Z,30.43
2022-08-07T14:40:35.391Z,30.53
2022-08-07T14:42:15.279Z,30.44
2022-08-07T14:43:57.411Z,30.62
2022-08-07T14:44:29.864Z,31.19
2022-08-07T14:45:49.862Z,31.29
2022-08-07T14:48:20.730Z,31.65
2022-08-07T14:49:57.115Z,31.86
2022-08-07T14:51:28.077Z,32.17
2022-08-07T14:52:51.365Z,32.67
2022-08-07T14:54:09.974Z,33.04
2022-08-07T14:55:21.574Z,33.35
2022-08-07T14:56:29.755Z,33.45
2022-08-07T14:57:54.590Z,33.72
2022-08-07T14:59:02.570Z,34.08
2022-08-07T15:00:08.150Z,34.50
2022-08-07T15:02:39.668Z,34.53
2022-08-07T15:03:52.211Z,34.86
2022-08-07T15:05:20.269Z,35.06
2022-08-07T15:06:28.022Z,34.88
2022-08-07T15:07:47.522Z,35.09
2022-08-07T15:08:55.763Z,35.32
2022-08-07T15:10:02.005Z,35.30
2022-08-07T15:11:15.119Z,35.67
2022-08-07T15:12:26.322Z,35.73
2022-08-07T15:13:51.054Z,35.80
2022-08-07T15:14:57.898Z,35.95
2022-08-07T15:16:03.704Z,36.05
2022-08-07T15:17:16.680Z,36.66
2022-08-07T15:18:33.815Z,36.64
2022-08-07T15:20:31.410Z,36.94
2022-08-07T15:22:33.403Z,37.78
2022-08-07T15:25:15.195Z,37.73
2022-08-07T15:25:17.550Z,38.27
2022-08-07T15:26:28.769Z,38.39
2022-08-07T15:27:34.273Z,38.65
2022-08-07T15:28:53.547Z,38.96
2022-08-07T15:33:03.947Z,39.72
2022-08-07T15:34:20.711Z,40.13
2022-08-07T15:36:01.160Z,40.38
2022-08-07T15:37:03.786Z,41.03
2022-08-07T15:41:24.278Z,41.58
2022-08-07T15:42:46.508Z,41.83
2022-08-07T15:44:03.074Z,42.07
2022-08-07T15:45:09.436Z,42.41
2022-08-07T15:46:31.888Z,42.81
2022-08-07T15:48:00.759Z,42.91
2022-08-07T15:49:12.960Z,43.35
2022-08-07T15:50:37.462Z,43.51
2022-08-07T15:53:09.087Z,43.77
2022-08-07T15:54:13.729Z,43.91
2022-08-07T15:55:20.159Z,44.28
2022-08-07T15:56:36.424Z,44.21
2022-08-07T15:57:48.763Z,44.43
2022-08-07T15:58:55.273Z,44.85
2022-08-07T15:59:59.887Z,44.86
2022-08-07T16:01:20.072Z,45.22
2022-08-07T16:02:26.056Z,45.20
2022-08-07T16:03:47.143Z,45.52
2022-08-07T16:05:01.805Z,45.76
2022-08-07T16:06:05.339Z,46.05
2022-08-07T16:07:32.053Z,46.09
2022-08-07T16:08:38.544Z,46.34
2022-08-07T16:09:51.797Z,46.56
2022-08-07T16:10:57.923Z,46.75
2022-08-07T16:12:00.920Z,46.63
2022-08-07T16:13:39.631Z,46.95
2022-08-07T16:14:48.635Z,47.10
2022-08-07T16:16:06.108Z,47.50
2022-08-07T16:18:02.062Z,47.42
2022-08-07T16:19:04.150Z,47.37
2022-08-07T16:20:33.910Z,47.51
2022-08-07T16:22:03.611Z,47.59
2022-08-07T16:23:53.809Z,47.55
2022-08-07T18:06:03.366Z,53.13
2022-08-07T18:07:21.027Z,53.03